Time;durP1;ratioP1;P1;durP2;ratioP2;P2;SDS_P1;SDS_P2;PMS_P1;PMS_P2;Temp;Humidity;BMP_temperature;BMP_pressure;BME280_temperature;BME280_humidity;BME280_pressure;Samples;Min_cycle;Max_cycle;Signal;HPM_P1;HPM_P2
2022/04/23 00:00:21;;;;;;;35.45;29.15;;;;;;;14.44;53.19;94077.03;5010405;28;20022;-63
2022/04/23 00:02:47;;;;;;;34.67;29.05;;;;;;;14.72;52.65;94098.19;5011240;23;20054;-64
2022/04/23 00:05:12;;;;;;;38.47;30.00;;;;;;;14.60;52.74;94106.41;4990969;28;20033;-65
2022/04/23 00:07:38;;;;;;;38.70;31.58;;;;;;;14.70;52.91;94097.78;4989897;28;20085;-65
2022/04/23 00:10:04;;;;;;;34.90;29.52;;;;;;;14.83;52.03;94098.38;4989786;28;20425;-66
2022/04/23 00:12:30;;;;;;;36.20;29.60;;;;;;;14.04;53.92;94094.19;4989581;28;20030;-65
2022/04/23 00:14:55;;;;;;;34.15;28.48;;;;;;;14.45;53.17;94093.84;4989506;28;20026;-63
2022/04/23 00:17:21;;;;;;;36.17;29.58;;;;;;;14.60;52.99;94082.31;4991084;28;20066;-66
2022/04/23 00:19:47;;;;;;;37.65;31.27;;;;;;;14.61;52.73;94083.09;4991085;28;20383;-66
2022/04/23 00:22:15;;;;;;;34.78;29.85;;;;;;;14.82;52.52;94094.16;5005621;28;20060;-66
2022/04/23 00:24:41;;;;;;;38.22;30.38;;;;;;;14.37;53.06;94073.44;4990028;28;20426;-66
2022/04/23 00:27:06;;;;;;;41.22;32.65;;;;;;;13.94;54.08;94081.38;4991287;28;20019;-65
2022/04/23 00:29:32;;;;;;;37.83;30.15;;;;;;;13.81;54.71;94100.56;4991173;28;20387;-66
2022/04/23 00:31:58;;;;;;;37.30;31.25;;;;;;;13.59;55.12;94064.59;4989342;28;20034;-65
2022/04/23 00:34:24;;;;;;;40.03;32.20;;;;;;;13.39;55.92;94093.91;4989642;28;20642;-65
2022/04/23 00:36:49;;;;;;;42.72;31.65;;;;;;;13.18;56.62;94096.81;4990955;28;20026;-65
2022/04/23 00:39:14;;;;;;;37.20;31.38;;;;;;;12.92;57.29;94081.31;4991069;28;20024;-66
2022/04/23 00:41:46;;;;;;;39.13;31.90;;;;;;;13.28;56.83;94103.56;4990486;28;20034;-65
2022/04/23 00:44:15;;;;;;;43.72;33.03;;;;;;;13.43;56.71;94100.13;4986304;28;20031;-65
2022/04/23 00:46:42;;;;;;;42.65;33.03;;;;;;;13.69;55.65;94102.22;4972183;28;20042;-65
2022/04/23 00:49:08;;;;;;;39.83;31.77;;;;;;;13.81;55.15;94073.81;4975438;28;20026;-65
2022/04/23 00:51:33;;;;;;;44.05;32.92;;;;;;;14.10;54.49;94085.91;4973758;28;20019;-65
2022/04/23 00:54:04;;;;;;;39.72;31.10;;;;;;;14.29;54.09;94100.03;4990972;28;20101;-65
2022/04/23 00:56:31;;;;;;;39.25;31.42;;;;;;;14.09;54.30;94079.00;4994711;28;20026;-66
2022/04/23 00:58:57;;;;;;;36.90;29.77;;;;;;;13.61;54.64;94059.66;4994582;28;20081;-65
2022/04/23 01:01:24;;;;;;;36.88;30.23;;;;;;;13.66;55.22;94099.47;4994163;28;20034;-65
2022/04/23 01:03:52;;;;;;;38.70;28.95;;;;;;;13.19;55.88;94082.34;4994159;28;20038;-65
2022/04/23 01:06:18;;;;;;;33.95;28.30;;;;;;;13.29;56.51;94094.44;4994537;28;20467;-65
2022/04/23 01:08:45;;;;;;;37.58;29.23;;;;;;;13.12;56.52;94071.50;4994433;28;20030;-65
2022/04/23 01:11:10;;;;;;;36.78;29.00;;;;;;;13.60;55.92;94098.97;4993942;28;20018;-65
2022/04/23 01:13:36;;;;;;;34.70;29.08;;;;;;;13.68;55.14;94084.66;4992827;28;20394;-65
2022/04/23 01:16:04;;;;;;;31.50;27.42;;;;;;;13.70;55.62;94101.09;4994204;28;20427;-65
2022/04/23 01:18:30;;;;;;;34.15;28.20;;;;;;;13.70;55.04;94092.31;4992964;28;20072;-65
2022/04/23 01:20:57;;;;;;;30.95;25.80;;;;;;;13.95;54.60;94106.97;4993491;28;20084;-64
2022/04/23 01:23:23;;;;;;;31.02;26.33;;;;;;;13.90;54.66;94104.59;4992844;28;20027;-65
2022/04/23 01:25:53;;;;;;;36.45;29.15;;;;;;;13.89;54.62;94113.72;4993963;28;20027;-65
2022/04/23 01:28:23;;;;;;;33.67;28.67;;;;;;;13.65;55.17;94100.59;4993969;28;20040;-65
2022/04/23 01:30:53;;;;;;;35.03;28.98;;;;;;;13.97;54.53;94107.44;4993130;28;20041;-65
2022/04/23 01:33:19;;;;;;;29.48;25.88;;;;;;;13.78;54.78;94099.38;4994005;28;20029;-65
2022/04/23 01:35:45;;;;;;;32.40;26.98;;;;;;;13.69;54.86;94104.91;4993952;28;20034;-65
2022/04/23 01:38:12;;;;;;;37.53;28.40;;;;;;;13.73;54.74;94097.75;4993852;28;20033;-65
2022/04/23 01:40:37;;;;;;;34.17;28.25;;;;;;;13.73;54.82;94097.75;4993245;28;20034;-65
2022/04/23 01:43:04;;;;;;;29.65;26.27;;;;;;;13.14;55.70;94103.19;4993751;28;20414;-65
2022/04/23 01:45:29;;;;;;;30.67;26.75;;;;;;;13.40;55.69;94086.66;4993744;28;20097;-65
2022/04/23 01:47:54;;;;;;;30.83;25.23;;;;;;;13.52;55.51;94110.63;4993834;28;20125;-65
2022/04/23 01:50:20;;;;;;;31.95;26.33;;;;;;;13.48;55.52;94097.19;4993216;28;20026;-65
2022/04/23 01:52:46;;;;;;;33.20;27.50;;;;;;;13.01;56.67;94103.28;4993532;28;20539;-65
2022/04/23 01:55:12;;;;;;;30.38;27.08;;;;;;;13.17;56.04;94087.28;4993647;28;20030;-65
2022/04/23 01:57:37;;;;;;;31.77;25.95;;;;;;;13.48;55.60;94094.50;4993831;28;20026;-65
2022/04/23 02:00:08;;;;;;;27.90;24.38;;;;;;;12.74;57.51;94109.44;4992567;28;20382;-65
2022/04/23 02:02:34;;;;;;;28.20;23.77;;;;;;;12.60;58.22;94095.75;4992987;28;20030;-65
2022/04/23 02:04:59;;;;;;;30.70;24.02;;;;;;;12.76;57.50;94064.53;4992042;28;20296;-65
2022/04/23 02:07:25;;;;;;;28.10;23.90;;;;;;;12.84;57.49;94110.84;4993539;28;20108;-65
2022/04/23 02:09:50;;;;;;;28.48;23.67;;;;;;;12.61;57.79;94099.97;4993269;28;20057;-65
2022/04/23 02:12:16;;;;;;;28.30;23.55;;;;;;;12.99;56.96;94105.50;4993033;28;20475;-65
2022/04/23 02:14:41;;;;;;;33.30;26.60;;;;;;;13.25;56.94;94117.59;4992799;28;20125;-65
2022/04/23 02:17:06;;;;;;;29.60;25.83;;;;;;;12.40;57.62;94081.53;4992305;28;20387;-65
2022/04/23 02:19:33;;;;;;;35.40;27.77;;;;;;;12.88;57.23;94112.47;4992648;28;20127;-64
2022/04/23 02:21:59;;;;;;;34.38;28.95;;;;;;;12.43;57.79;94081.59;4992569;28;20105;-66
2022/04/23 02:24:24;;;;;;;33.78;27.05;;;;;;;12.71;57.19;94064.78;4991426;28;20117;-65
2022/04/23 02:26:51;;;;;;;31.60;26.17;;;;;;;12.68;57.26;94090.25;4993025;28;20026;-65
2022/04/23 02:29:16;;;;;;;31.55;26.75;;;;;;;12.83;57.05;94083.38;4991637;28;20483;-65
2022/04/23 02:31:41;;;;;;;31.70;25.95;;;;;;;12.48;58.48;94110.69;4992490;28;20034;-65
2022/04/23 02:34:07;;;;;;;28.42;24.05;;;;;;;12.43;58.15;94086.94;4992508;28;20100;-65
2022/04/23 02:36:32;;;;;;;26.45;23.00;;;;;;;12.17;58.89;94094.59;4993039;28;20038;-65
2022/04/23 02:38:58;;;;;;;26.02;22.98;;;;;;;12.58;57.79;94084.63;4992894;28;20027;-65
2022/04/23 02:41:24;;;;;;;30.70;23.02;;;;;;;13.21;56.99;94093.50;4992316;28;20030;-65
2022/04/23 02:43:50;;;;;;;27.15;24.10;;;;;;;12.67;57.04;94090.59;4992270;28;20053;-65
2022/04/23 02:46:16;;;;;;;26.20;23.50;;;;;;;12.65;56.58;94066.94;4991385;28;20465;-65
2022/04/23 02:48:42;;;;;;;25.40;22.73;;;;;;;13.16;55.96;94076.94;4992803;28;20105;-65
2022/04/23 02:51:09;;;;;;;26.42;22.13;;;;;;;13.24;55.29;94068.78;4991845;28;20109;-65
2022/04/23 02:53:34;;;;;;;23.58;21.20;;;;;;;13.76;54.53;94099.69;4992454;28;20026;-65
2022/04/23 02:56:02;;;;;;;25.27;22.58;;;;;;;13.75;54.26;94092.81;4991102;28;20027;-65
2022/04/23 02:58:28;;;;;;;25.33;22.73;;;;;;;13.64;54.10;94102.50;4992434;28;20018;-65
2022/04/23 03:00:54;;;;;;;31.40;23.08;;;;;;;13.59;53.71;94080.63;4991931;28;20061;-64
2022/04/23 03:03:20;;;;;;;27.63;24.73;;;;;;;13.69;53.59;94074.72;4992281;28;20065;-64
2022/04/23 03:05:46;;;;;;;26.95;24.10;;;;;;;13.89;53.45;94092.34;4992159;28;20098;-64
2022/04/23 03:08:12;;;;;;;26.75;23.95;;;;;;;13.39;53.80;94088.56;4992294;28;20047;-65
2022/04/23 03:10:41;;;;;;;26.40;23.77;;;;;;;13.93;53.48;94101.22;4991437;28;20038;-65
2022/04/23 03:13:08;;;;;;;26.27;23.45;;;;;;;14.07;53.19;94098.06;4992176;28;20030;-65
2022/04/23 03:15:34;;;;;;;27.27;24.38;;;;;;;14.17;53.12;94108.19;4992088;28;20097;-64
2022/04/23 03:18:11;;;;;;;29.55;25.27;;;;;;;14.16;52.87;94100.53;4992006;28;20042;-65
2022/04/23 03:20:38;;;;;;;25.95;23.33;;;;;;;14.23;52.62;94103.38;4990375;28;20077;-65
2022/04/23 03:23:04;;;;;;;26.33;23.45;;;;;;;14.02;52.59;94106.34;4991818;28;20387;-65
2022/04/23 03:25:32;;;;;;;26.92;24.00;;;;;;;14.04;52.57;94104.13;4991856;28;20030;-65
2022/04/23 03:27:57;;;;;;;26.63;23.27;;;;;;;14.09;52.38;94093.16;4992050;28;20528;-65
2022/04/23 03:30:23;;;;;;;26.80;23.33;;;;;;;14.17;52.08;94091.38;4990023;28;20022;-65
2022/04/23 03:32:48;;;;;;;25.88;23.15;;;;;;;14.28;52.07;94095.81;4991858;28;20035;-65
2022/04/23 03:35:14;;;;;;;27.52;24.60;;;;;;;14.27;51.60;94090.81;4991904;28;20473;-65
2022/04/23 03:37:41;;;;;;;26.60;23.70;;;;;;;14.19;51.91;94094.50;4991839;28;20053;-65
2022/04/23 03:40:07;;;;;;;32.97;27.42;;;;;;;14.21;51.88;94113.63;4991280;28;20146;-64
2022/04/23 03:42:34;;;;;;;26.45;23.63;;;;;;;14.16;52.21;94105.88;4991507;28;20471;-65
2022/04/23 03:45:01;;;;;;;28.05;25.15;;;;;;;14.03;52.04;94081.97;4991661;28;20037;-65
2022/04/23 03:47:26;;;;;;;25.25;22.70;;;;;;;14.03;52.48;94119.38;4991734;28;20022;-65
2022/04/23 03:49:51;;;;;;;27.77;23.80;;;;;;;13.99;52.15;94112.41;4991382;28;20034;-65
2022/04/23 03:52:17;;;;;;;28.00;23.95;;;;;;;13.88;52.63;94106.06;4991062;28;20601;-65
2022/04/23 03:54:42;;;;;;;26.65;23.42;;;;;;;13.93;52.79;94103.91;4991534;28;20431;-65
2022/04/23 03:57:07;;;;;;;28.38;24.92;;;;;;;13.94;52.37;94081.38;4991548;28;20022;-65
2022/04/23 03:59:35;;;;;;;25.55;22.83;;;;;;;13.93;52.36;94079.84;4991518;28;20057;-65
2022/04/23 04:02:04;;;;;;;27.33;23.50;;;;;;;13.89;52.63;94092.34;4990852;28;20026;-66
2022/04/23 04:04:32;;;;;;;24.65;22.05;;;;;;;13.88;52.98;94112.19;4991476;28;20022;-66
2022/04/23 04:07:00;;;;;;;25.35;22.65;;;;;;;13.91;52.63;94105.34;4990095;28;20030;-65
2022/04/23 04:09:28;;;;;;;25.83;23.02;;;;;;;13.52;52.88;94057.97;4990009;28;20394;-65
2022/04/23 04:12:03;;;;;;;29.75;25.40;;;;;;;13.63;52.94;94084.16;4991029;28;20035;-65
2022/04/23 04:14:30;;;;;;;30.23;24.90;;;;;;;13.19;54.42;94109.06;4991292;28;20227;-65
2022/04/23 04:16:58;;;;;;;27.15;24.17;;;;;;;13.44;54.04;94092.88;4991530;28;20634;-65
2022/04/23 04:19:25;;;;;;;29.38;25.35;;;;;;;12.84;55.15;94076.91;4989917;28;20030;-65
2022/04/23 04:21:50;;;;;;;30.73;25.48;;;;;;;13.01;55.06;94092.63;4990500;28;20030;-65
2022/04/23 04:24:16;;;;;;;29.23;26.00;;;;;;;12.41;56.72;94091.06;4995275;28;20427;-65
2022/04/23 04:26:46;;;;;;;31.30;26.52;;;;;;;12.54;57.15;94087.22;4995343;28;20037;-65
2022/04/23 04:29:12;;;;;;;32.42;26.58;;;;;;;12.63;56.79;94061.16;4994761;28;20030;-65
2022/04/23 04:31:47;;;;;;;31.15;25.45;;;;;;;12.81;56.62;94066.19;4993372;28;20037;-65
2022/04/23 04:34:13;;;;;;;28.75;25.02;;;;;;;12.84;56.04;94065.47;4993828;28;20030;-65
2022/04/23 04:36:38;;;;;;;27.65;24.35;;;;;;;13.14;55.68;94047.13;4993747;28;20499;-65
2022/04/23 04:39:04;;;;;;;26.35;23.52;;;;;;;13.55;55.05;94075.19;4993805;28;20038;-64
2022/04/23 04:41:31;;;;;;;26.02;23.23;;;;;;;13.76;54.56;94080.22;4993887;28;20471;-66
2022/04/23 04:43:57;;;;;;;24.42;21.77;;;;;;;13.91;53.90;94078.63;4994694;28;20085;-65
2022/04/23 04:46:22;;;;;;;28.95;22.33;;;;;;;13.87;53.59;94062.53;4994749;28;20022;-65
2022/04/23 04:48:47;;;;;;;28.20;23.90;;;;;;;13.58;53.24;94041.66;4994917;28;20054;-65
2022/04/23 04:51:13;;;;;;;29.77;24.67;;;;;;;13.30;53.63;94029.22;4994249;28;20030;-64
2022/04/23 04:53:38;;;;;;;31.92;26.10;;;;;;;13.19;54.47;94044.97;4993198;28;20042;-65
2022/04/23 04:56:05;;;;;;;32.10;26.30;;;;;;;13.45;54.22;94060.47;4994665;28;20026;-66
2022/04/23 04:58:30;;;;;;;27.83;23.95;;;;;;;13.58;53.86;94055.78;4994574;28;20023;-66
2022/04/23 05:00:56;;;;;;;28.85;24.25;;;;;;;13.36;54.03;94053.75;4994143;28;20032;-66
2022/04/23 05:03:21;;;;;;;29.27;24.40;;;;;;;13.51;53.72;94056.41;4993404;28;20038;-65
2022/04/23 05:05:47;;;;;;;28.90;24.13;;;;;;;13.73;54.13;94088.94;4994511;28;20383;-64
2022/04/23 05:08:12;;;;;;;25.88;23.05;;;;;;;13.71;53.81;94075.13;4994522;28;20100;-64
2022/04/23 05:10:38;;;;;;;27.40;23.33;;;;;;;13.60;53.85;94079.47;4992477;28;21659;-64
2022/04/23 05:13:03;;;;;;;25.45;22.67;;;;;;;13.92;53.55;94088.19;4994454;28;20409;-64
2022/04/23 05:15:28;;;;;;;24.73;21.15;;;;;;;13.88;53.26;94098.81;4994369;28;20088;-64
2022/04/23 05:17:54;;;;;;;23.83;19.77;;;;;;;13.89;53.01;94087.00;4994324;28;20558;-64
2022/04/23 05:20:19;;;;;;;23.20;20.63;;;;;;;13.79;52.79;94074.19;4993774;28;20434;-64
2022/04/23 05:22:45;;;;;;;26.10;20.75;;;;;;;13.98;52.70;94098.28;4992715;28;20062;-64
2022/04/23 05:25:10;;;;;;;22.92;20.05;;;;;;;14.09;52.77;94081.69;4994199;28;20028;-64
2022/04/23 05:27:35;;;;;;;26.23;20.65;;;;;;;14.07;52.33;94099.94;4994198;28;20049;-64
2022/04/23 05:30:01;;;;;;;23.42;20.67;;;;;;;14.29;52.40;94088.56;4993785;28;20068;-64
2022/04/23 05:32:26;;;;;;;24.55;21.10;;;;;;;14.35;52.01;94097.09;4993688;28;20039;-64
2022/04/23 05:34:51;;;;;;;24.48;21.30;;;;;;;14.20;51.76;94066.63;4992682;28;20026;-64
2022/04/23 05:37:18;;;;;;;24.80;21.30;;;;;;;13.88;52.34;94060.63;4992794;28;20435;-64
2022/04/23 05:39:43;;;;;;;27.00;22.88;;;;;;;13.70;53.20;94077.03;4992322;28;20113;-65
2022/04/23 05:42:08;;;;;;;24.02;20.33;;;;;;;14.21;52.69;94068.94;4993359;28;20117;-64
2022/04/23 05:44:34;;;;;;;23.20;20.05;;;;;;;14.08;51.91;94064.09;4992373;28;20068;-68
2022/04/23 05:46:59;;;;;;;20.95;18.52;;;;;;;14.01;52.37;94062.78;4993693;28;20038;-64
2022/04/23 05:49:24;;;;;;;23.40;20.23;;;;;;;13.96;52.41;94049.72;4992418;28;20026;-65
2022/04/23 05:51:50;;;;;;;24.15;19.30;;;;;;;14.53;51.77;94087.50;4991992;28;20027;-65
2022/04/23 05:54:15;;;;;;;22.95;19.63;;;;;;;14.05;51.92;94063.66;4993486;28;20109;-65
2022/04/23 05:56:41;;;;;;;24.08;19.92;;;;;;;13.73;52.61;94078.25;4992181;28;20054;-64
2022/04/23 05:59:06;;;;;;;26.50;20.92;;;;;;;14.23;52.20;94080.06;4992026;28;20410;-64
2022/04/23 06:01:32;;;;;;;23.75;20.75;;;;;;;14.04;52.67;94080.81;4992888;28;20034;-64
2022/04/23 06:03:57;;;;;;;22.00;19.65;;;;;;;13.73;52.80;94073.69;5003017;23;20043;-69
2022/04/23 06:06:22;;;;;;;21.30;18.98;;;;;;;13.79;52.54;94012.72;4972645;28;20111;-66
2022/04/23 06:08:48;;;;;;;24.23;19.38;;;;;;;13.74;52.85;94087.81;4973618;28;20063;-67
2022/04/23 06:11:13;;;;;;;22.83;19.38;;;;;;;13.88;52.43;94069.41;4973430;28;20027;-67
2022/04/23 06:13:39;;;;;;;23.88;19.17;;;;;;;13.47;53.69;94071.59;4972627;28;20026;-68
2022/04/23 06:16:04;;;;;;;27.23;20.42;;;;;;;13.23;54.50;94087.81;4972570;28;20538;-67
2022/04/23 06:18:29;;;;;;;22.38;19.67;;;;;;;13.29;54.28;94091.75;4973852;28;20102;-68
2022/04/23 06:20:55;;;;;;;22.98;19.27;;;;;;;13.20;54.69;94083.91;4973104;28;20073;-69
2022/04/23 06:23:20;;;;;;;23.33;20.42;;;;;;;13.25;54.94;94075.66;4973542;28;20066;-68
2022/04/23 06:25:46;;;;;;;24.10;20.92;;;;;;;13.27;54.98;94068.09;4972276;28;20058;-69
2022/04/23 06:28:11;;;;;;;24.40;20.17;;;;;;;13.41;54.92;94083.66;4972066;28;20027;-68
2022/04/23 06:30:38;;;;;;;25.00;20.23;;;;;;;12.86;55.56;94053.34;4972943;28;20630;-69
2022/04/23 06:33:03;;;;;;;27.65;21.08;;;;;;;12.82;55.99;94049.03;4973547;28;20046;-69
2022/04/23 06:35:30;;;;;;;25.90;19.92;;;;;;;12.83;56.64;94104.72;4972048;28;20464;-68
2022/04/23 06:37:55;;;;;;;24.52;19.88;;;;;;;13.33;55.13;94059.81;4973153;28;20031;-69
2022/04/23 06:40:21;;;;;;;26.15;19.63;;;;;;;13.47;55.24;94100.22;4973009;28;20019;-69
2022/04/23 06:42:47;;;;;;;27.55;19.65;;;;;;;12.84;55.35;94007.53;4973243;28;20031;-69
2022/04/23 06:45:12;;;;;;;21.55;18.17;;;;;;;13.20;54.47;94019.03;4972923;28;20022;-75
2022/04/23 06:47:38;;;;;;;25.10;19.20;;;;;;;13.37;54.64;94050.75;4973313;28;20027;-70
2022/04/23 06:50:06;;;;;;;20.10;16.48;;;;;;;14.14;53.40;94113.50;4970717;28;20031;-70
2022/04/23 06:52:31;;;;;;;20.88;18.33;;;;;;;14.08;52.70;94016.72;4971902;28;20046;-69
2022/04/23 06:54:56;;;;;;;21.75;18.48;;;;;;;14.26;51.76;94071.31;4973018;28;20078;-70
2022/04/23 06:57:23;;;;;;;23.27;19.48;;;;;;;14.19;51.97;94031.06;4971972;28;20031;-74
2022/04/23 06:59:50;;;;;;;21.00;17.95;;;;;;;14.75;51.92;94105.53;4971653;28;20030;-71
2022/04/23 07:02:16;;;;;;;21.90;18.85;;;;;;;14.11;52.25;94056.13;4972023;28;20027;-69
2022/04/23 07:04:42;;;;;;;22.52;17.30;;;;;;;14.42;51.86;94057.84;4970141;28;20048;-71
2022/04/23 07:07:08;;;;;;;19.95;17.70;;;;;;;13.91;53.19;94084.75;4982117;28;20735;-69
2022/04/23 07:09:33;;;;;;;22.95;18.05;;;;;;;14.25;52.15;94039.59;4971789;28;20026;-65
2022/04/23 07:11:58;;;;;;;22.50;18.33;;;;;;;13.89;53.07;94043.47;4986681;28;20061;-65
2022/04/23 07:14:25;;;;;;;21.83;18.30;;;;;;;13.47;53.64;94038.75;4985732;28;20030;-67
2022/04/23 07:16:50;;;;;;;20.65;17.52;;;;;;;13.68;54.46;94105.25;4976354;28;20064;-69
2022/04/23 07:19:16;;;;;;;21.95;17.80;;;;;;;14.29;53.43;94077.88;4985140;28;20543;-68
2022/04/23 07:21:41;;;;;;;23.80;18.55;;;;;;;13.24;55.80;94087.47;4969168;28;20037;-67
2022/04/23 07:24:08;;;;;;;22.08;17.90;;;;;;;14.30;53.61;94090.13;4970867;28;20030;-66
2022/04/23 07:26:35;;;;;;;21.02;17.83;;;;;;;14.03;53.48;94106.03;4983785;28;20051;-69
2022/04/23 07:29:05;;;;;;;22.92;16.55;;;;;;;14.13;53.41;94047.75;4988132;28;20081;-71
2022/04/23 07:31:31;;;;;;;19.13;16.67;;;;;;;13.91;52.86;94025.16;4988162;28;20030;-72
2022/04/23 07:39:24;;;;;;;17.58;15.77;;;;;;;14.78;51.51;94064.66;4972505;28;20037;-75
2022/04/23 07:41:50;;;;;;;19.40;15.95;;;;;;;15.20;50.83;94089.81;4971437;28;20038;-69
2022/04/23 07:44:15;;;;;;;20.27;16.40;;;;;;;14.80;51.37;94077.69;4971071;28;20110;-72
2022/04/23 07:46:40;;;;;;;21.35;16.83;;;;;;;14.45;52.15;94040.34;4970648;28;20058;-74
2022/04/23 07:49:06;;;;;;;19.80;16.90;;;;;;;14.49;52.37;94071.41;4975719;28;20053;-75
2022/04/23 07:51:31;;;;;;;23.35;16.73;;;;;;;14.10;53.10;94085.91;4979184;28;20082;-71
2022/04/23 07:53:56;;;;;;;21.30;17.55;;;;;;;14.66;51.82;94034.63;4976264;28;20084;-72
2022/04/23 07:56:24;;;;;;;22.30;17.70;;;;;;;15.00;51.22;94057.00;4988848;28;20525;-67
2022/04/23 07:58:49;;;;;;;21.67;17.33;;;;;;;15.46;50.46;94049.69;4972928;28;20499;-66
2022/04/23 08:01:15;;;;;;;18.48;16.58;;;;;;;15.34;50.55;94023.06;4980484;28;20058;-67
2022/04/23 08:03:41;;;;;;;22.40;17.67;;;;;;;14.92;50.37;94032.00;4974366;28;20469;-71
2022/04/23 08:06:07;;;;;;;21.80;17.63;;;;;;;14.79;50.73;94003.84;4984826;28;20063;-71
2022/04/23 08:08:33;;;;;;;20.65;17.65;;;;;;;15.46;50.40;94056.94;4970035;28;20031;-65
2022/04/23 08:10:58;;;;;;;19.83;17.73;;;;;;;14.87;50.43;94021.59;4981303;28;20026;-71
2022/04/23 08:13:24;;;;;;;19.67;15.98;;;;;;;15.21;50.95;94060.00;4991532;28;20042;-68
2022/04/23 08:15:49;;;;;;;20.63;16.35;;;;;;;15.06;50.58;94042.94;4983218;28;20029;-70
2022/04/23 08:18:16;;;;;;;17.63;15.90;;;;;;;15.48;49.63;94038.59;4989573;28;20038;-71
2022/04/23 08:20:41;;;;;;;17.83;16.13;;;;;;;15.69;49.04;94040.81;4985579;28;20482;-71
2022/04/23 08:23:10;;;;;;;16.92;15.15;;;;;;;15.70;48.08;94008.28;4986383;28;20034;-68
2022/04/23 08:25:35;;;;;;;18.63;16.15;;;;;;;16.15;47.89;94043.31;4988309;28;20033;-71
2022/04/23 08:30:46;;;;;;;16.73;15.05;;;;;;;15.74;49.19;94059.28;4991086;28;20041;-70
2022/04/23 08:33:12;;;;;;;17.55;15.95;;;;;;;16.05;47.71;94015.22;4989712;28;20100;-69
2022/04/23 08:35:38;;;;;;;18.33;16.35;;;;;;;16.16;47.88;94071.69;4985231;28;20479;-68
2022/04/23 08:38:08;;;;;;;18.85;16.88;;;;;;;16.45;47.20;94084.31;4977446;28;20078;-71
2022/04/23 08:40:40;;;;;;;17.88;16.08;;;;;;;16.60;47.17;94059.16;4991193;28;20054;-68
2022/04/23 08:43:06;;;;;;;20.10;17.42;;;;;;;16.64;46.93;94073.41;4989544;28;20034;-72
2022/04/23 08:45:35;;;;;;;19.40;16.67;;;;;;;16.51;46.41;94088.19;4968789;28;20365;-69
2022/04/23 08:48:05;;;;;;;16.75;15.23;;;;;;;17.13;45.85;94075.03;4958118;28;20169;-71
2022/04/23 08:50:31;;;;;;;17.45;15.65;;;;;;;17.38;45.04;94034.91;4978348;28;20084;-70
2022/04/23 08:52:59;;;;;;;18.15;16.45;;;;;;;17.62;44.17;94035.44;4989998;28;20471;-70
2022/04/23 08:55:26;;;;;;;18.08;16.33;;;;;;;17.65;44.46;94056.97;4977089;28;20027;-70
2022/04/23 08:57:51;;;;;;;18.55;16.80;;;;;;;17.84;43.65;94006.78;4970336;28;20496;-70
2022/04/23 09:00:17;;;;;;;16.83;15.20;;;;;;;17.79;43.78;94074.38;4974037;28;20110;-70
2022/04/23 09:02:43;;;;;;;17.63;15.88;;;;;;;17.04;44.30;94020.81;4971367;28;20038;-71
2022/04/23 09:05:12;;;;;;;18.15;16.45;;;;;;;17.21;44.75;94032.09;4991464;28;20411;-71
2022/04/23 09:07:38;;;;;;;18.52;16.73;;;;;;;16.81;44.82;94015.66;4991688;28;20054;-71
2022/04/23 09:10:05;;;;;;;18.98;17.27;;;;;;;16.37;45.79;94000.25;4984916;28;20037;-72
2022/04/23 09:12:31;;;;;;;22.52;17.73;;;;;;;17.30;44.58;94029.84;4993421;28;20037;-69
2022/04/23 09:23:41;;;;;;;16.67;15.18;;;;;;;18.27;42.05;94042.72;4989389;28;20118;-67
2022/04/23 09:26:21;;;;;;;18.25;16.50;;;;;;;18.36;42.10;94039.66;4973777;28;20061;-71
2022/04/23 09:28:52;;;;;;;17.02;15.52;;;;;;;18.92;41.18;94024.81;4969325;28;20058;-69
2022/04/23 09:31:17;;;;;;;17.60;16.00;;;;;;;18.85;40.30;93962.84;4973275;28;20115;-68
2022/04/23 09:33:51;;;;;;;17.48;15.68;;;;;;;19.22;40.21;94052.16;4983800;28;20373;-69
2022/04/23 09:36:17;;;;;;;16.77;15.38;;;;;;;19.19;41.08;94047.56;4973464;28;20057;-67
2022/04/23 09:38:42;;;;;;;16.35;14.95;;;;;;;19.14;39.94;93940.13;4994182;28;20102;-71
2022/04/23 09:41:18;;;;;;;16.23;14.90;;;;;;;19.49;39.05;94060.63;4973520;28;20073;-72
2022/04/23 09:43:46;;;;;;;15.95;14.65;;;;;;;18.99;40.77;94064.44;4974406;28;20073;-74
2022/04/23 09:46:12;;;;;;;15.25;14.05;;;;;;;18.22;41.02;93996.53;4973717;28;20475;-71
2022/04/23 09:48:43;;;;;;;15.07;13.68;;;;;;;19.14;40.64;94058.72;4965530;28;20029;-69
2022/04/23 09:51:26;;;;;;;13.27;12.27;;;;;;;20.05;38.90;94028.53;4971935;28;20535;-67
2022/04/23 09:53:53;;;;;;;13.30;12.10;;;;;;;20.13;38.55;94037.41;4978134;28;20061;-69
2022/04/23 09:56:24;;;;;;;13.50;12.25;;;;;;;19.54;38.56;94019.00;4963245;28;20109;-72
2022/04/23 09:58:51;;;;;;;12.10;11.20;;;;;;;19.97;38.10;94022.41;4975801;28;20038;-70
2022/04/23 10:01:19;;;;;;;13.15;12.15;;;;;;;18.61;40.20;93983.94;4976283;28;20051;-69
2022/04/23 10:03:49;;;;;;;12.00;11.10;;;;;;;19.69;39.46;94044.81;4975707;28;20045;-72
2022/04/23 10:06:20;;;;;;;11.60;10.35;;;;;;;19.48;39.71;94031.34;4973229;28;20033;-74
2022/04/23 10:08:51;;;;;;;10.93;9.98;;;;;;;19.76;39.25;94003.59;4976805;28;20494;-69
2022/04/23 10:11:29;;;;;;;9.63;8.82;;;;;;;20.80;37.25;94040.97;4979215;28;20039;-68
2022/04/23 10:14:06;;;;;;;10.13;9.40;;;;;;;20.07;37.35;93958.75;4974460;28;20068;-71
2022/04/23 10:16:33;;;;;;;10.20;9.40;;;;;;;20.24;38.22;94019.22;4974361;28;20022;-75
2022/04/23 10:19:00;;;;;;;9.77;9.05;;;;;;;20.79;37.26;94020.50;4990649;28;20080;-75
2022/04/23 10:21:40;;;;;;;8.98;8.38;;;;;;;20.69;37.02;93979.66;4978919;28;20023;-80
2022/04/23 10:24:23;;;;;;;9.48;8.77;;;;;;;22.20;35.33;93995.28;4971875;28;20582;-74
2022/04/23 10:26:51;;;;;;;23.30;20.92;;;;;;;22.86;33.13;94021.13;4974903;28;20034;-71
2022/04/23 10:29:22;;;;;;;11.63;9.77;;;;;;;23.59;32.51;94023.09;4971243;28;20458;-71
2022/04/23 10:32:10;;;;;;;14.52;13.05;;;;;;;23.65;31.97;94021.50;4969317;28;20038;-73
2022/04/23 10:34:38;;;;;;;13.02;12.02;;;;;;;22.94;32.39;93990.84;4969043;28;20066;-74
2022/04/23 10:37:22;;;;;;;11.95;11.15;;;;;;;22.69;33.23;94037.25;4976353;28;20039;-72
2022/04/23 10:39:50;;;;;;;11.25;10.45;;;;;;;23.21;32.80;94041.56;4974915;28;20041;-67
2022/04/23 10:42:17;;;;;;;12.18;11.20;;;;;;;21.97;33.99;94040.00;4993037;28;20549;-67
2022/04/23 10:44:43;;;;;;;12.07;11.18;;;;;;;22.07;34.40;94032.94;4982091;28;20081;-67
2022/04/23 10:47:16;;;;;;;13.65;12.65;;;;;;;21.65;34.56;94024.09;4971325;28;20031;-67
2022/04/23 10:49:42;;;;;;;12.75;11.77;;;;;;;22.16;34.19;94021.63;4973319;28;20329;-66
2022/04/23 10:52:07;;;;;;;13.88;12.88;;;;;;;22.26;33.79;94002.56;4972262;28;20046;-76
2022/04/23 10:54:42;;;;;;;14.07;13.07;;;;;;;22.83;32.95;94036.28;4971287;28;20030;-77
2022/04/23 10:57:09;;;;;;;17.95;12.40;;;;;;;22.36;33.10;94006.31;4972671;28;20031;-73
2022/04/23 10:59:53;;;;;;;13.70;12.60;;;;;;;22.68;33.56;94038.44;4975713;28;20036;-71
2022/04/23 11:02:19;;;;;;;14.35;13.10;;;;;;;22.94;32.78;94038.88;4986280;28;20026;-76
2022/04/23 11:13:38;;;;;;;19.75;17.75;;;;;;;20.70;36.72;94037.16;5011694;28;20437;-66
2022/04/23 11:16:14;;;;;;;19.52;17.92;;;;;;;20.76;36.70;94039.03;5022880;28;20044;-67
2022/04/23 11:18:41;;;;;;;19.67;17.83;;;;;;;21.17;36.60;94038.38;5010856;28;20152;-67
2022/04/23 11:21:16;;;;;;;18.08;16.27;;;;;;;20.94;36.86;94014.63;5003269;28;20029;-65
2022/04/23 11:23:45;;;;;;;20.08;18.17;;;;;;;20.65;37.07;94008.63;5009726;28;20394;-66
2022/04/23 11:26:12;;;;;;;19.13;17.40;;;;;;;21.26;36.46;94036.00;5008197;28;20387;-66
2022/04/23 11:28:39;;;;;;;20.27;18.17;;;;;;;21.34;37.28;94025.13;5009911;28;20117;-69
2022/04/23 11:31:24;;;;;;;17.02;15.32;;;;;;;22.15;35.05;94020.09;5021303;22;20049;-66
2022/04/23 11:33:57;;;;;;;18.05;16.38;;;;;;;21.70;36.22;94026.38;5026321;28;20033;-63
2022/04/23 11:36:28;;;;;;;19.90;18.00;;;;;;;21.18;36.11;94022.91;5023121;28;20386;-65
2022/04/23 11:39:00;;;;;;;17.90;16.27;;;;;;;20.44;37.89;94011.41;5009831;28;20113;-65
2022/04/23 11:41:26;;;;;;;18.58;16.90;;;;;;;21.03;36.57;94006.03;5009561;28;20046;-66